sensor_id;sensor_type;location;lat;lon;timestamp;P1;durP1;ratioP1;P2;durP2;ratioP2
6306;SDS011;3186;54.062;9.962;2022-07-29T00:00:53;2.87;;;2.20;;
6306;SDS011;3186;54.062;9.962;2022-07-29T00:03:18;3.50;;;2.10;;
6306;SDS011;3186;54.062;9.962;2022-07-29T00:05:44;3.10;;;1.93;;
6306;SDS011;3186;54.062;9.962;2022-07-29T00:08:10;1.93;;;1.83;;
6306;SDS011;3186;54.062;9.962;2022-07-29T00:10:36;3.17;;;2.20;;
6306;SDS011;3186;54.062;9.962;2022-07-29T00:13:02;4.23;;;2.20;;
6306;SDS011;3186;54.062;9.962;2022-07-29T00:15:28;3.27;;;2.20;;
6306;SDS011;3186;54.062;9.962;2022-07-29T00:17:54;3.47;;;1.90;;
6306;SDS011;3186;54.062;9.962;2022-07-29T00:20:19;2.20;;;1.80;;
6306;SDS011;3186;54.062;9.962;2022-07-29T00:22:45;2.47;;;2.27;;
6306;SDS011;3186;54.062;9.962;2022-07-29T00:25:11;2.13;;;1.93;;
6306;SDS011;3186;54.062;9.962;2022-07-29T00:27:38;2.43;;;2.00;;
6306;SDS011;3186;54.062;9.962;2022-07-29T00:30:04;3.20;;;2.30;;
6306;SDS011;3186;54.062;9.962;2022-07-29T00:32:31;2.90;;;2.07;;
6306;SDS011;3186;54.062;9.962;2022-07-29T00:34:58;3.33;;;2.27;;
6306;SDS011;3186;54.062;9.962;2022-07-29T00:37:42;3.53;;;2.27;;
6306;SDS011;3186;54.062;9.962;2022-07-29T00:40:08;4.87;;;2.20;;
6306;SDS011;3186;54.062;9.962;2022-07-29T00:45:09;7.53;;;3.17;;
6306;SDS011;3186;54.062;9.962;2022-07-29T00:47:36;2.40;;;2.20;;
6306;SDS011;3186;54.062;9.962;2022-07-29T00:50:03;2.43;;;2.10;;
6306;SDS011;3186;54.062;9.962;2022-07-29T00:52:30;2.13;;;2.00;;
6306;SDS011;3186;54.062;9.962;2022-07-29T00:54:56;3.17;;;2.27;;
6306;SDS011;3186;54.062;9.962;2022-07-29T00:57:22;3.33;;;2.27;;
6306;SDS011;3186;54.062;9.962;2022-07-29T00:59:48;2.73;;;2.30;;
6306;SDS011;3186;54.062;9.962;2022-07-29T01:02:14;2.33;;;2.13;;
6306;SDS011;3186;54.062;9.962;2022-07-29T01:04:40;3.00;;;2.30;;
6306;SDS011;3186;54.062;9.962;2022-07-29T01:07:06;4.93;;;2.37;;
6306;SDS011;3186;54.062;9.962;2022-07-29T01:09:33;4.03;;;2.50;;
6306;SDS011;3186;54.062;9.962;2022-07-29T01:12:01;2.60;;;2.40;;
6306;SDS011;3186;54.062;9.962;2022-07-29T01:14:27;2.63;;;2.30;;
6306;SDS011;3186;54.062;9.962;2022-07-29T01:21:59;5.73;;;3.27;;
6306;SDS011;3186;54.062;9.962;2022-07-29T01:24:47;4.27;;;3.30;;
6306;SDS011;3186;54.062;9.962;2022-07-29T01:27:47;5.47;;;3.43;;
6306;SDS011;3186;54.062;9.962;2022-07-29T01:30:29;8.13;;;4.10;;
6306;SDS011;3186;54.062;9.962;2022-07-29T01:32:59;7.40;;;4.00;;
6306;SDS011;3186;54.062;9.962;2022-07-29T01:35:49;6.33;;;4.00;;
6306;SDS011;3186;54.062;9.962;2022-07-29T01:38:19;5.33;;;3.83;;
6306;SDS011;3186;54.062;9.962;2022-07-29T01:41:20;9.73;;;4.30;;
6306;SDS011;3186;54.062;9.962;2022-07-29T01:43:57;5.83;;;3.50;;
6306;SDS011;3186;54.062;9.962;2022-07-29T01:46:37;6.23;;;3.37;;
6306;SDS011;3186;54.062;9.962;2022-07-29T01:49:10;6.47;;;3.60;;
6306;SDS011;3186;54.062;9.962;2022-07-29T01:51:52;5.47;;;3.70;;
6306;SDS011;3186;54.062;9.962;2022-07-29T01:54:26;3.70;;;3.10;;
6306;SDS011;3186;54.062;9.962;2022-07-29T01:57:00;5.60;;;3.07;;
6306;SDS011;3186;54.062;9.962;2022-07-29T01:59:29;3.07;;;2.87;;
6306;SDS011;3186;54.062;9.962;2022-07-29T02:01:57;5.23;;;3.10;;
6306;SDS011;3186;54.062;9.962;2022-07-29T02:04:23;2.93;;;2.50;;
6306;SDS011;3186;54.062;9.962;2022-07-29T02:06:52;4.27;;;2.90;;
6306;SDS011;3186;54.062;9.962;2022-07-29T02:09:21;3.80;;;3.13;;
6306;SDS011;3186;54.062;9.962;2022-07-29T02:11:50;6.23;;;3.03;;
6306;SDS011;3186;54.062;9.962;2022-07-29T02:14:19;3.97;;;2.63;;
6306;SDS011;3186;54.062;9.962;2022-07-29T02:16:48;4.20;;;2.50;;
6306;SDS011;3186;54.062;9.962;2022-07-29T02:19:18;4.63;;;3.03;;
6306;SDS011;3186;54.062;9.962;2022-07-29T02:21:47;3.07;;;2.70;;
6306;SDS011;3186;54.062;9.962;2022-07-29T02:24:15;3.70;;;2.40;;
6306;SDS011;3186;54.062;9.962;2022-07-29T02:26:43;3.07;;;2.33;;
6306;SDS011;3186;54.062;9.962;2022-07-29T02:29:10;3.03;;;2.40;;
6306;SDS011;3186;54.062;9.962;2022-07-29T02:31:40;5.53;;;2.70;;
6306;SDS011;3186;54.062;9.962;2022-07-29T02:34:08;5.03;;;2.90;;
6306;SDS011;3186;54.062;9.962;2022-07-29T02:36:35;3.37;;;2.23;;
6306;SDS011;3186;54.062;9.962;2022-07-29T02:39:03;3.57;;;2.67;;
6306;SDS011;3186;54.062;9.962;2022-07-29T02:42:04;3.40;;;2.60;;
6306;SDS011;3186;54.062;9.962;2022-07-29T02:44:29;2.93;;;2.17;;
6306;SDS011;3186;54.062;9.962;2022-07-29T02:47:10;2.67;;;2.20;;
6306;SDS011;3186;54.062;9.962;2022-07-29T02:55:16;2.47;;;2.23;;
6306;SDS011;3186;54.062;9.962;2022-07-29T03:00:34;3.70;;;2.50;;
6306;SDS011;3186;54.062;9.962;2022-07-29T03:03:03;3.80;;;2.37;;
6306;SDS011;3186;54.062;9.962;2022-07-29T03:05:32;3.27;;;2.57;;
6306;SDS011;3186;54.062;9.962;2022-07-29T03:08:01;3.40;;;2.20;;
6306;SDS011;3186;54.062;9.962;2022-07-29T03:10:29;2.70;;;2.30;;
6306;SDS011;3186;54.062;9.962;2022-07-29T03:12:56;4.83;;;2.50;;
6306;SDS011;3186;54.062;9.962;2022-07-29T03:15:23;2.87;;;2.30;;
6306;SDS011;3186;54.062;9.962;2022-07-29T03:17:49;2.73;;;2.30;;
6306;SDS011;3186;54.062;9.962;2022-07-29T03:20:16;5.50;;;2.33;;
6306;SDS011;3186;54.062;9.962;2022-07-29T03:22:43;2.73;;;2.20;;
6306;SDS011;3186;54.062;9.962;2022-07-29T03:27:39;3.27;;;2.27;;
6306;SDS011;3186;54.062;9.962;2022-07-29T03:30:06;2.70;;;2.17;;
6306;SDS011;3186;54.062;9.962;2022-07-29T03:32:33;2.40;;;2.20;;
6306;SDS011;3186;54.062;9.962;2022-07-29T03:34:59;3.63;;;2.10;;
6306;SDS011;3186;54.062;9.962;2022-07-29T03:37:25;3.20;;;2.50;;
6306;SDS011;3186;54.062;9.962;2022-07-29T03:39:52;4.43;;;2.17;;
6306;SDS011;3186;54.062;9.962;2022-07-29T03:42:22;2.80;;;2.30;;
6306;SDS011;3186;54.062;9.962;2022-07-29T03:44:50;2.60;;;2.10;;
6306;SDS011;3186;54.062;9.962;2022-07-29T03:47:20;2.13;;;2.00;;
6306;SDS011;3186;54.062;9.962;2022-07-29T03:49:51;3.80;;;2.40;;
6306;SDS011;3186;54.062;9.962;2022-07-29T03:52:19;3.47;;;2.47;;
6306;SDS011;3186;54.062;9.962;2022-07-29T03:54:46;3.53;;;2.40;;
6306;SDS011;3186;54.062;9.962;2022-07-29T03:57:12;3.37;;;2.00;;
6306;SDS011;3186;54.062;9.962;2022-07-29T03:59:40;3.63;;;2.40;;
6306;SDS011;3186;54.062;9.962;2022-07-29T04:02:08;2.60;;;2.17;;
6306;SDS011;3186;54.062;9.962;2022-07-29T04:04:36;3.30;;;2.20;;
6306;SDS011;3186;54.062;9.962;2022-07-29T04:07:02;2.87;;;2.20;;
6306;SDS011;3186;54.062;9.962;2022-07-29T04:09:28;2.33;;;1.93;;
6306;SDS011;3186;54.062;9.962;2022-07-29T04:11:54;3.07;;;2.00;;
6306;SDS011;3186;54.062;9.962;2022-07-29T04:14:20;4.17;;;2.10;;
6306;SDS011;3186;54.062;9.962;2022-07-29T04:16:46;3.30;;;2.20;;
6306;SDS011;3186;54.062;9.962;2022-07-29T04:19:12;2.07;;;1.80;;
6306;SDS011;3186;54.062;9.962;2022-07-29T04:21:39;2.37;;;2.17;;
6306;SDS011;3186;54.062;9.962;2022-07-29T04:24:06;6.17;;;2.03;;
6306;SDS011;3186;54.062;9.962;2022-07-29T04:26:32;2.93;;;2.20;;
6306;SDS011;3186;54.062;9.962;2022-07-29T04:28:59;2.63;;;1.97;;
6306;SDS011;3186;54.062;9.962;2022-07-29T04:31:25;4.27;;;1.97;;
6306;SDS011;3186;54.062;9.962;2022-07-29T04:33:52;2.57;;;1.90;;
6306;SDS011;3186;54.062;9.962;2022-07-29T04:36:17;3.70;;;2.13;;
6306;SDS011;3186;54.062;9.962;2022-07-29T04:38:43;3.37;;;2.10;;
6306;SDS011;3186;54.062;9.962;2022-07-29T04:41:09;2.83;;;2.40;;
6306;SDS011;3186;54.062;9.962;2022-07-29T04:43:35;3.97;;;2.17;;
6306;SDS011;3186;54.062;9.962;2022-07-29T04:46:02;2.93;;;2.30;;
6306;SDS011;3186;54.062;9.962;2022-07-29T04:48:28;3.90;;;2.33;;
6306;SDS011;3186;54.062;9.962;2022-07-29T04:50:54;2.70;;;2.17;;
6306;SDS011;3186;54.062;9.962;2022-07-29T04:53:20;2.87;;;2.50;;
6306;SDS011;3186;54.062;9.962;2022-07-29T04:55:46;4.23;;;2.23;;
6306;SDS011;3186;54.062;9.962;2022-07-29T04:58:12;3.47;;;2.30;;
6306;SDS011;3186;54.062;9.962;2022-07-29T05:00:38;2.63;;;2.20;;
6306;SDS011;3186;54.062;9.962;2022-07-29T05:03:05;3.70;;;2.10;;
6306;SDS011;3186;54.062;9.962;2022-07-29T05:05:31;3.87;;;2.00;;
6306;SDS011;3186;54.062;9.962;2022-07-29T05:07:57;2.93;;;2.57;;
6306;SDS011;3186;54.062;9.962;2022-07-29T05:10:23;3.87;;;2.47;;
6306;SDS011;3186;54.062;9.962;2022-07-29T05:12:49;2.70;;;2.10;;
6306;SDS011;3186;54.062;9.962;2022-07-29T05:15:14;3.53;;;2.33;;
6306;SDS011;3186;54.062;9.962;2022-07-29T05:17:41;2.57;;;2.27;;
6306;SDS011;3186;54.062;9.962;2022-07-29T05:20:07;4.40;;;2.10;;
6306;SDS011;3186;54.062;9.962;2022-07-29T05:22:33;2.50;;;1.97;;
6306;SDS011;3186;54.062;9.962;2022-07-29T05:24:59;2.87;;;1.97;;
6306;SDS011;3186;54.062;9.962;2022-07-29T05:27:25;4.20;;;2.40;;
6306;SDS011;3186;54.062;9.962;2022-07-29T05:29:51;3.30;;;2.00;;
6306;SDS011;3186;54.062;9.962;2022-07-29T05:32:17;3.80;;;2.17;;
6306;SDS011;3186;54.062;9.962;2022-07-29T05:34:43;5.70;;;2.40;;
6306;SDS011;3186;54.062;9.962;2022-07-29T05:37:09;2.93;;;2.20;;
6306;SDS011;3186;54.062;9.962;2022-07-29T05:39:34;5.57;;;2.63;;
6306;SDS011;3186;54.062;9.962;2022-07-29T05:42:00;4.37;;;2.20;;
6306;SDS011;3186;54.062;9.962;2022-07-29T05:44:26;5.10;;;2.27;;
6306;SDS011;3186;54.062;9.962;2022-07-29T05:46:52;5.40;;;2.40;;
6306;SDS011;3186;54.062;9.962;2022-07-29T05:49:18;2.37;;;1.80;;
6306;SDS011;3186;54.062;9.962;2022-07-29T05:51:43;5.33;;;2.87;;
6306;SDS011;3186;54.062;9.962;2022-07-29T05:54:09;5.13;;;2.40;;
6306;SDS011;3186;54.062;9.962;2022-07-29T05:56:36;4.20;;;2.53;;
6306;SDS011;3186;54.062;9.962;2022-07-29T05:59:02;5.23;;;2.73;;
6306;SDS011;3186;54.062;9.962;2022-07-29T06:01:28;5.10;;;3.13;;
6306;SDS011;3186;54.062;9.962;2022-07-29T06:03:54;3.77;;;2.63;;
6306;SDS011;3186;54.062;9.962;2022-07-29T06:06:20;3.80;;;2.60;;
6306;SDS011;3186;54.062;9.962;2022-07-29T06:08:46;3.37;;;2.60;;
6306;SDS011;3186;54.062;9.962;2022-07-29T06:11:12;6.30;;;2.53;;
6306;SDS011;3186;54.062;9.962;2022-07-29T06:13:37;6.70;;;2.87;;
6306;SDS011;3186;54.062;9.962;2022-07-29T06:16:03;6.07;;;2.70;;
6306;SDS011;3186;54.062;9.962;2022-07-29T06:18:29;6.10;;;2.97;;
6306;SDS011;3186;54.062;9.962;2022-07-29T06:20:55;4.73;;;2.70;;
6306;SDS011;3186;54.062;9.962;2022-07-29T06:23:21;3.70;;;3.20;;
6306;SDS011;3186;54.062;9.962;2022-07-29T06:25:47;6.20;;;3.80;;
6306;SDS011;3186;54.062;9.962;2022-07-29T06:28:13;4.33;;;3.20;;
6306;SDS011;3186;54.062;9.962;2022-07-29T06:30:39;4.67;;;2.80;;
6306;SDS011;3186;54.062;9.962;2022-07-29T06:33:05;5.80;;;3.00;;
6306;SDS011;3186;54.062;9.962;2022-07-29T06:35:34;5.43;;;3.50;;
6306;SDS011;3186;54.062;9.962;2022-07-29T06:38:02;5.53;;;3.43;;
6306;SDS011;3186;54.062;9.962;2022-07-29T06:40:28;3.03;;;2.73;;
6306;SDS011;3186;54.062;9.962;2022-07-29T06:43:12;5.70;;;3.00;;
6306;SDS011;3186;54.062;9.962;2022-07-29T06:45:38;8.33;;;3.37;;
6306;SDS011;3186;54.062;9.962;2022-07-29T06:48:06;5.30;;;3.40;;
6306;SDS011;3186;54.062;9.962;2022-07-29T06:50:32;6.33;;;3.37;;
6306;SDS011;3186;54.062;9.962;2022-07-29T06:52:58;3.40;;;2.50;;
6306;SDS011;3186;54.062;9.962;2022-07-29T06:55:23;4.10;;;2.97;;
6306;SDS011;3186;54.062;9.962;2022-07-29T06:57:49;5.40;;;3.07;;
6306;SDS011;3186;54.062;9.962;2022-07-29T07:00:15;5.60;;;3.00;;
6306;SDS011;3186;54.062;9.962;2022-07-29T07:02:41;5.00;;;2.67;;
6306;SDS011;3186;54.062;9.962;2022-07-29T07:05:07;6.00;;;3.10;;
6306;SDS011;3186;54.062;9.962;2022-07-29T07:07:33;4.83;;;3.20;;
6306;SDS011;3186;54.062;9.962;2022-07-29T07:09:59;6.80;;;3.17;;
6306;SDS011;3186;54.062;9.962;2022-07-29T07:12:25;8.23;;;3.30;;
6306;SDS011;3186;54.062;9.962;2022-07-29T07:14:50;8.77;;;3.47;;
6306;SDS011;3186;54.062;9.962;2022-07-29T07:17:16;5.70;;;3.33;;
6306;SDS011;3186;54.062;9.962;2022-07-29T07:19:42;5.53;;;2.80;;
6306;SDS011;3186;54.062;9.962;2022-07-29T07:22:08;4.80;;;2.80;;
6306;SDS011;3186;54.062;9.962;2022-07-29T07:24:34;5.67;;;3.40;;
6306;SDS011;3186;54.062;9.962;2022-07-29T07:26:59;7.63;;;3.37;;
6306;SDS011;3186;54.062;9.962;2022-07-29T07:29:25;2.87;;;2.47;;
6306;SDS011;3186;54.062;9.962;2022-07-29T07:31:51;3.80;;;2.90;;
6306;SDS011;3186;54.062;9.962;2022-07-29T07:34:17;6.07;;;3.03;;
6306;SDS011;3186;54.062;9.962;2022-07-29T07:36:43;4.57;;;3.10;;
6306;SDS011;3186;54.062;9.962;2022-07-29T07:39:09;4.20;;;2.77;;
6306;SDS011;3186;54.062;9.962;2022-07-29T07:41:35;5.30;;;2.90;;
6306;SDS011;3186;54.062;9.962;2022-07-29T07:44:01;5.20;;;3.30;;
6306;SDS011;3186;54.062;9.962;2022-07-29T07:46:26;3.77;;;2.70;;
6306;SDS011;3186;54.062;9.962;2022-07-29T07:48:52;5.07;;;2.67;;
6306;SDS011;3186;54.062;9.962;2022-07-29T07:51:18;4.10;;;2.83;;
6306;SDS011;3186;54.062;9.962;2022-07-29T07:53:44;4.70;;;2.93;;
6306;SDS011;3186;54.062;9.962;2022-07-29T07:56:10;3.33;;;2.80;;
6306;SDS011;3186;54.062;9.962;2022-07-29T07:58:35;6.80;;;3.23;;
6306;SDS011;3186;54.062;9.962;2022-07-29T08:01:02;4.40;;;3.17;;
6306;SDS011;3186;54.062;9.962;2022-07-29T08:03:28;4.63;;;2.60;;
6306;SDS011;3186;54.062;9.962;2022-07-29T08:05:54;7.27;;;2.90;;
6306;SDS011;3186;54.062;9.962;2022-07-29T08:08:20;3.70;;;2.67;;
6306;SDS011;3186;54.062;9.962;2022-07-29T08:10:46;4.47;;;2.53;;
6306;SDS011;3186;54.062;9.962;2022-07-29T08:13:19;5.20;;;3.03;;
6306;SDS011;3186;54.062;9.962;2022-07-29T08:15:45;5.00;;;2.70;;
6306;SDS011;3186;54.062;9.962;2022-07-29T08:18:14;5.63;;;2.90;;
6306;SDS011;3186;54.062;9.962;2022-07-29T08:20:40;4.77;;;2.97;;
6306;SDS011;3186;54.062;9.962;2022-07-29T08:23:07;4.47;;;2.80;;
6306;SDS011;3186;54.062;9.962;2022-07-29T08:25:36;5.13;;;2.83;;
6306;SDS011;3186;54.062;9.962;2022-07-29T08:28:04;4.83;;;2.70;;
6306;SDS011;3186;54.062;9.962;2022-07-29T08:30:30;6.37;;;2.77;;
6306;SDS011;3186;54.062;9.962;2022-07-29T08:32:57;5.37;;;2.30;;
6306;SDS011;3186;54.062;9.962;2022-07-29T08:35:23;3.47;;;2.63;;
6306;SDS011;3186;54.062;9.962;2022-07-29T08:37:50;4.80;;;2.77;;
6306;SDS011;3186;54.062;9.962;2022-07-29T08:40:16;5.07;;;2.77;;
6306;SDS011;3186;54.062;9.962;2022-07-29T08:42:42;5.70;;;2.70;;
6306;SDS011;3186;54.062;9.962;2022-07-29T08:45:08;4.40;;;2.47;;
6306;SDS011;3186;54.062;9.962;2022-07-29T08:47:34;6.00;;;2.70;;
6306;SDS011;3186;54.062;9.962;2022-07-29T08:50:05;5.37;;;2.50;;
6306;SDS011;3186;54.062;9.962;2022-07-29T08:52:33;3.80;;;2.57;;
6306;SDS011;3186;54.062;9.962;2022-07-29T08:55:02;4.80;;;2.57;;
6306;SDS011;3186;54.062;9.962;2022-07-29T08:57:30;4.63;;;2.40;;
6306;SDS011;3186;54.062;9.962;2022-07-29T08:59:58;5.83;;;2.87;;
6306;SDS011;3186;54.062;9.962;2022-07-29T09:02:26;3.23;;;2.40;;
6306;SDS011;3186;54.062;9.962;2022-07-29T09:04:55;7.00;;;2.70;;
6306;SDS011;3186;54.062;9.962;2022-07-29T09:07:24;5.03;;;2.70;;
6306;SDS011;3186;54.062;9.962;2022-07-29T09:09:50;3.70;;;2.57;;
6306;SDS011;3186;54.062;9.962;2022-07-29T09:12:16;7.43;;;2.47;;
6306;SDS011;3186;54.062;9.962;2022-07-29T09:14:42;5.53;;;2.50;;
6306;SDS011;3186;54.062;9.962;2022-07-29T09:17:08;5.70;;;2.67;;
6306;SDS011;3186;54.062;9.962;2022-07-29T09:19:34;5.47;;;2.50;;
6306;SDS011;3186;54.062;9.962;2022-07-29T09:22:03;5.23;;;2.40;;
6306;SDS011;3186;54.062;9.962;2022-07-29T09:24:41;6.50;;;2.40;;
6306;SDS011;3186;54.062;9.962;2022-07-29T09:27:09;4.00;;;2.53;;
6306;SDS011;3186;54.062;9.962;2022-07-29T09:29:55;4.63;;;2.20;;
6306;SDS011;3186;54.062;9.962;2022-07-29T09:32:32;3.03;;;2.63;;
6306;SDS011;3186;54.062;9.962;2022-07-29T09:35:19;5.87;;;2.50;;
6306;SDS011;3186;54.062;9.962;2022-07-29T09:37:46;6.50;;;2.70;;
6306;SDS011;3186;54.062;9.962;2022-07-29T09:40:13;5.17;;;2.37;;
6306;SDS011;3186;54.062;9.962;2022-07-29T09:42:44;3.53;;;2.60;;
6306;SDS011;3186;54.062;9.962;2022-07-29T09:45:11;5.67;;;2.60;;
6306;SDS011;3186;54.062;9.962;2022-07-29T09:47:41;3.27;;;2.00;;
6306;SDS011;3186;54.062;9.962;2022-07-29T09:50:14;3.20;;;2.30;;
6306;SDS011;3186;54.062;9.962;2022-07-29T09:52:50;3.43;;;2.23;;
6306;SDS011;3186;54.062;9.962;2022-07-29T09:55:17;3.13;;;2.30;;
6306;SDS011;3186;54.062;9.962;2022-07-29T09:57:45;3.57;;;2.00;;
6306;SDS011;3186;54.062;9.962;2022-07-29T10:00:13;3.13;;;2.40;;
6306;SDS011;3186;54.062;9.962;2022-07-29T10:02:44;4.97;;;2.20;;
6306;SDS011;3186;54.062;9.962;2022-07-29T10:07:48;5.73;;;2.40;;
6306;SDS011;3186;54.062;9.962;2022-07-29T10:10:20;4.67;;;2.50;;
6306;SDS011;3186;54.062;9.962;2022-07-29T10:12:50;5.10;;;2.03;;
6306;SDS011;3186;54.062;9.962;2022-07-29T10:15:21;3.67;;;2.10;;
6306;SDS011;3186;54.062;9.962;2022-07-29T10:17:50;4.87;;;1.90;;
6306;SDS011;3186;54.062;9.962;2022-07-29T10:20:17;5.53;;;2.00;;
6306;SDS011;3186;54.062;9.962;2022-07-29T10:22:44;4.50;;;2.30;;
6306;SDS011;3186;54.062;9.962;2022-07-29T10:25:12;4.23;;;2.07;;
6306;SDS011;3186;54.062;9.962;2022-07-29T10:27:39;2.40;;;1.97;;
6306;SDS011;3186;54.062;9.962;2022-07-29T10:30:05;3.27;;;2.17;;
6306;SDS011;3186;54.062;9.962;2022-07-29T10:38:02;6.57;;;2.43;;
6306;SDS011;3186;54.062;9.962;2022-07-29T10:43:32;4.43;;;1.73;;
6306;SDS011;3186;54.062;9.962;2022-07-29T10:46:06;4.03;;;1.97;;
6306;SDS011;3186;54.062;9.962;2022-07-29T10:48:32;3.47;;;1.87;;
6306;SDS011;3186;54.062;9.962;2022-07-29T10:51:00;2.90;;;2.10;;
6306;SDS011;3186;54.062;9.962;2022-07-29T10:56:22;4.33;;;2.00;;
6306;SDS011;3186;54.062;9.962;2022-07-29T11:01:47;4.10;;;1.80;;
6306;SDS011;3186;54.062;9.962;2022-07-29T11:04:14;2.50;;;2.00;;
6306;SDS011;3186;54.062;9.962;2022-07-29T11:09:27;4.00;;;2.00;;
6306;SDS011;3186;54.062;9.962;2022-07-29T11:11:55;3.30;;;1.83;;
6306;SDS011;3186;54.062;9.962;2022-07-29T11:17:19;4.57;;;1.80;;
6306;SDS011;3186;54.062;9.962;2022-07-29T11:19:45;3.73;;;2.00;;
6306;SDS011;3186;54.062;9.962;2022-07-29T11:22:12;3.50;;;2.07;;
6306;SDS011;3186;54.062;9.962;2022-07-29T11:25:13;5.30;;;2.37;;
6306;SDS011;3186;54.062;9.962;2022-07-29T11:27:44;2.57;;;1.90;;
6306;SDS011;3186;54.062;9.962;2022-07-29T11:30:10;4.77;;;2.10;;
6306;SDS011;3186;54.062;9.962;2022-07-29T11:32:40;2.43;;;1.70;;
6306;SDS011;3186;54.062;9.962;2022-07-29T11:35:17;4.33;;;2.30;;
6306;SDS011;3186;54.062;9.962;2022-07-29T11:43:48;2.03;;;1.67;;
6306;SDS011;3186;54.062;9.962;2022-07-29T11:49:23;4.57;;;2.17;;
6306;SDS011;3186;54.062;9.962;2022-07-29T11:51:56;2.93;;;2.00;;
6306;SDS011;3186;54.062;9.962;2022-07-29T11:54:30;3.33;;;2.03;;
6306;SDS011;3186;54.062;9.962;2022-07-29T11:56:58;3.43;;;2.00;;
6306;SDS011;3186;54.062;9.962;2022-07-29T11:59:24;4.37;;;1.93;;
6306;SDS011;3186;54.062;9.962;2022-07-29T12:01:58;3.17;;;2.00;;
6306;SDS011;3186;54.062;9.962;2022-07-29T12:04:25;3.23;;;1.67;;
6306;SDS011;3186;54.062;9.962;2022-07-29T12:06:54;4.50;;;2.03;;
6306;SDS011;3186;54.062;9.962;2022-07-29T12:09:20;3.73;;;1.83;;
6306;SDS011;3186;54.062;9.962;2022-07-29T12:11:48;3.17;;;1.87;;
6306;SDS011;3186;54.062;9.962;2022-07-29T12:14:27;2.67;;;1.70;;
6306;SDS011;3186;54.062;9.962;2022-07-29T12:16:54;3.37;;;1.60;;
6306;SDS011;3186;54.062;9.962;2022-07-29T12:19:21;3.03;;;2.20;;
6306;SDS011;3186;54.062;9.962;2022-07-29T12:21:48;2.77;;;2.00;;
6306;SDS011;3186;54.062;9.962;2022-07-29T12:24:15;3.43;;;2.00;;
6306;SDS011;3186;54.062;9.962;2022-07-29T12:29:17;3.87;;;2.27;;
6306;SDS011;3186;54.062;9.962;2022-07-29T12:31:44;3.77;;;2.17;;
6306;SDS011;3186;54.062;9.962;2022-07-29T12:34:12;3.00;;;1.97;;
6306;SDS011;3186;54.062;9.962;2022-07-29T12:36:40;4.47;;;2.10;;
6306;SDS011;3186;54.062;9.962;2022-07-29T12:39:07;3.37;;;2.10;;
6306;SDS011;3186;54.062;9.962;2022-07-29T12:41:35;3.47;;;2.00;;
6306;SDS011;3186;54.062;9.962;2022-07-29T12:44:01;3.53;;;2.10;;
6306;SDS011;3186;54.062;9.962;2022-07-29T12:46:27;2.33;;;2.00;;
6306;SDS011;3186;54.062;9.962;2022-07-29T12:48:53;4.03;;;2.20;;
6306;SDS011;3186;54.062;9.962;2022-07-29T12:51:33;4.47;;;2.17;;
6306;SDS011;3186;54.062;9.962;2022-07-29T12:54:08;2.30;;;1.77;;
6306;SDS011;3186;54.062;9.962;2022-07-29T12:56:44;2.97;;;2.07;;
6306;SDS011;3186;54.062;9.962;2022-07-29T12:59:21;4.17;;;2.20;;
6306;SDS011;3186;54.062;9.962;2022-07-29T13:01:48;3.27;;;2.17;;
6306;SDS011;3186;54.062;9.962;2022-07-29T13:04:28;3.97;;;2.30;;
6306;SDS011;3186;54.062;9.962;2022-07-29T13:07:02;3.90;;;2.40;;
6306;SDS011;3186;54.062;9.962;2022-07-29T13:09:38;3.07;;;1.90;;
6306;SDS011;3186;54.062;9.962;2022-07-29T13:12:09;3.27;;;2.10;;
6306;SDS011;3186;54.062;9.962;2022-07-29T13:14:41;2.77;;;1.83;;
6306;SDS011;3186;54.062;9.962;2022-07-29T13:22:09;3.70;;;2.20;;
6306;SDS011;3186;54.062;9.962;2022-07-29T13:24:47;4.73;;;2.20;;
6306;SDS011;3186;54.062;9.962;2022-07-29T13:27:16;5.50;;;2.60;;
6306;SDS011;3186;54.062;9.962;2022-07-29T13:29:43;2.47;;;2.10;;
6306;SDS011;3186;54.062;9.962;2022-07-29T13:32:09;4.43;;;2.30;;
6306;SDS011;3186;54.062;9.962;2022-07-29T13:34:35;3.80;;;2.20;;
6306;SDS011;3186;54.062;9.962;2022-07-29T13:37:01;3.40;;;2.13;;
6306;SDS011;3186;54.062;9.962;2022-07-29T13:39:27;2.37;;;2.03;;
6306;SDS011;3186;54.062;9.962;2022-07-29T13:41:53;3.03;;;2.10;;
6306;SDS011;3186;54.062;9.962;2022-07-29T13:44:21;4.33;;;2.30;;
6306;SDS011;3186;54.062;9.962;2022-07-29T13:46:47;3.97;;;2.47;;
6306;SDS011;3186;54.062;9.962;2022-07-29T13:49:13;3.57;;;2.10;;
6306;SDS011;3186;54.062;9.962;2022-07-29T13:51:39;3.80;;;2.40;;
6306;SDS011;3186;54.062;9.962;2022-07-29T13:54:05;4.03;;;2.27;;
6306;SDS011;3186;54.062;9.962;2022-07-29T13:56:30;3.93;;;2.37;;
6306;SDS011;3186;54.062;9.962;2022-07-29T13:58:56;3.27;;;2.10;;
6306;SDS011;3186;54.062;9.962;2022-07-29T14:01:22;4.07;;;2.80;;
6306;SDS011;3186;54.062;9.962;2022-07-29T14:03:49;3.73;;;2.23;;
6306;SDS011;3186;54.062;9.962;2022-07-29T14:06:15;2.13;;;1.93;;
6306;SDS011;3186;54.062;9.962;2022-07-29T14:08:40;3.23;;;2.33;;
6306;SDS011;3186;54.062;9.962;2022-07-29T14:11:06;4.40;;;2.33;;
6306;SDS011;3186;54.062;9.962;2022-07-29T14:13:32;4.40;;;2.43;;
6306;SDS011;3186;54.062;9.962;2022-07-29T14:15:58;2.83;;;2.10;;
6306;SDS011;3186;54.062;9.962;2022-07-29T14:18:24;2.80;;;2.10;;
6306;SDS011;3186;54.062;9.962;2022-07-29T14:20:50;5.90;;;2.53;;
6306;SDS011;3186;54.062;9.962;2022-07-29T14:23:16;4.03;;;2.57;;
6306;SDS011;3186;54.062;9.962;2022-07-29T14:25:42;3.70;;;2.37;;
6306;SDS011;3186;54.062;9.962;2022-07-29T14:28:08;2.87;;;1.90;;
6306;SDS011;3186;54.062;9.962;2022-07-29T14:30:34;5.50;;;2.20;;
6306;SDS011;3186;54.062;9.962;2022-07-29T14:33:00;5.77;;;2.67;;
6306;SDS011;3186;54.062;9.962;2022-07-29T14:35:26;3.07;;;2.63;;
6306;SDS011;3186;54.062;9.962;2022-07-29T14:37:51;3.20;;;2.63;;
6306;SDS011;3186;54.062;9.962;2022-07-29T14:40:17;2.97;;;2.50;;
6306;SDS011;3186;54.062;9.962;2022-07-29T14:42:43;3.77;;;2.40;;
6306;SDS011;3186;54.062;9.962;2022-07-29T14:45:09;5.17;;;2.47;;
6306;SDS011;3186;54.062;9.962;2022-07-29T14:47:35;5.67;;;2.70;;
6306;SDS011;3186;54.062;9.962;2022-07-29T14:50:02;3.53;;;2.70;;
6306;SDS011;3186;54.062;9.962;2022-07-29T14:52:30;3.40;;;2.60;;
6306;SDS011;3186;54.062;9.962;2022-07-29T14:54:55;3.37;;;2.50;;
6306;SDS011;3186;54.062;9.962;2022-07-29T14:57:21;3.33;;;2.77;;
6306;SDS011;3186;54.062;9.962;2022-07-29T14:59:47;4.83;;;2.83;;
6306;SDS011;3186;54.062;9.962;2022-07-29T15:02:13;3.90;;;2.77;;
6306;SDS011;3186;54.062;9.962;2022-07-29T15:04:39;3.73;;;2.47;;
6306;SDS011;3186;54.062;9.962;2022-07-29T15:07:04;4.30;;;2.70;;
6306;SDS011;3186;54.062;9.962;2022-07-29T15:09:30;4.87;;;3.00;;
6306;SDS011;3186;54.062;9.962;2022-07-29T15:11:56;6.57;;;2.73;;
6306;SDS011;3186;54.062;9.962;2022-07-29T15:14:22;4.90;;;3.17;;
6306;SDS011;3186;54.062;9.962;2022-07-29T15:16:48;2.80;;;2.60;;
6306;SDS011;3186;54.062;9.962;2022-07-29T15:19:14;3.50;;;2.57;;
6306;SDS011;3186;54.062;9.962;2022-07-29T15:21:40;4.20;;;2.60;;
6306;SDS011;3186;54.062;9.962;2022-07-29T15:24:05;5.27;;;2.77;;
6306;SDS011;3186;54.062;9.962;2022-07-29T15:26:32;2.57;;;2.30;;
6306;SDS011;3186;54.062;9.962;2022-07-29T15:28:59;2.80;;;2.53;;
6306;SDS011;3186;54.062;9.962;2022-07-29T15:31:25;7.00;;;3.27;;
6306;SDS011;3186;54.062;9.962;2022-07-29T15:33:50;5.27;;;2.90;;
6306;SDS011;3186;54.062;9.962;2022-07-29T15:36:16;3.50;;;2.83;;
6306;SDS011;3186;54.062;9.962;2022-07-29T15:38:42;4.63;;;2.70;;
6306;SDS011;3186;54.062;9.962;2022-07-29T15:41:09;5.47;;;2.53;;
6306;SDS011;3186;54.062;9.962;2022-07-29T15:43:39;2.97;;;2.40;;
6306;SDS011;3186;54.062;9.962;2022-07-29T15:46:09;6.37;;;2.77;;
6306;SDS011;3186;54.062;9.962;2022-07-29T15:49:00;5.37;;;2.80;;
6306;SDS011;3186;54.062;9.962;2022-07-29T15:51:27;5.00;;;2.60;;
6306;SDS011;3186;54.062;9.962;2022-07-29T15:53:53;4.97;;;2.60;;
6306;SDS011;3186;54.062;9.962;2022-07-29T15:56:19;2.97;;;2.67;;
6306;SDS011;3186;54.062;9.962;2022-07-29T15:58:45;5.30;;;3.00;;
6306;SDS011;3186;54.062;9.962;2022-07-29T16:01:11;4.07;;;2.83;;
6306;SDS011;3186;54.062;9.962;2022-07-29T16:03:37;4.10;;;2.60;;
6306;SDS011;3186;54.062;9.962;2022-07-29T16:06:03;3.50;;;2.90;;
6306;SDS011;3186;54.062;9.962;2022-07-29T16:08:29;3.37;;;2.50;;
6306;SDS011;3186;54.062;9.962;2022-07-29T16:10:54;6.13;;;2.77;;
6306;SDS011;3186;54.062;9.962;2022-07-29T16:13:20;4.00;;;2.67;;
6306;SDS011;3186;54.062;9.962;2022-07-29T16:15:46;4.30;;;3.17;;
6306;SDS011;3186;54.062;9.962;2022-07-29T16:18:12;3.27;;;2.90;;